Overview Statistics Trail Chart Weather Telemetry Raw packets
 

This is the latest recevied weather packets stored in our database for station/object SV6GMP-10. If no packets are shown the sender has not sent any weather packets the latest 10 day(s).

<< 6 7 8 9 10 11 12 >>
Time Temp. Humidity Pressure Rain* Wind** Luminosity Snow
1788429793 31.67° C 63% 1013.1 hPa - - - -
1788428893 31.67° C 64% 1013.1 hPa - - - -
1788427993 31.11° C 64% 1013.2 hPa - - - -
1788427093 31.67° C 61% 1013.3 hPa - - - -
1788426193 31.67° C 52% 1013.4 hPa - - - -
1788425293 32.22° C 47% 1013.5 hPa - - - -
1788424393 31.67° C 47% 1013.5 hPa - - - -
1788423496 31.67° C 47% 1013.5 hPa - - - -
1788422593 31.11° C 50% 1013.5 hPa - - - -
1788421693 31.11° C 52% 1013.4 hPa - - - -
1788420793 30.56° C 55% 1013.5 hPa - - - -
1788419913 30° C 62% 1013.4 hPa - - - -
1788418992 30° C 61% 1013.4 hPa - - - -
1788418092 30° C 62% 1013.5 hPa - - - -
1788417192 29.44° C 66% 1013.4 hPa - - - -
1788416292 29.44° C 67% 1013.5 hPa - - - -
1788415392 29.44° C 66% 1013.4 hPa - - - -
1788414492 29.44° C 66% 1013.4 hPa - - - -
1788413592 29.44° C 67% 1013.4 hPa - - - -
1788412703 28.89° C 68% 1013.4 hPa - - - -
1788411792 29.44° C 67% 1013.5 hPa - - - -
1788410892 29.44° C 68% 1013.4 hPa - - - -
1788409992 29.44° C 67% 1013.2 hPa - - - -
1788409092 28.89° C 66% 1013.2 hPa - - - -
1788408192 29.44° C 67% 1013.1 hPa - - - -

* Rain since midnight (hover to see other rain measurements)
** Current wind speed in m/s (hover to see current wind gust speed)